<?xml version="1.0" encoding="UTF-8" standalone="no" ?>
<gpx xmlns="http://www.topografix.com/GPX/1/1" xmlns:xsi="http://www.w3.org/2001/XMLSchema-instance" xsi:schemaLocation="http://www.topografix.com/GPX/1/1 http://www.topografix.com/GPX/1/1/gpx.xsd" version="1.1" creator="VisuGPX - https://www.visugpx.com">
  <metadata>
    <name>OR-7834845--Chorges:Tour de la Baie de Chanteloube</name>
  </metadata>
  <trk>
    <name><![CDATA[OR-7834845--Chorges:Tour de la Baie de Chanteloube]]></name>
    <trkseg>
      <trkpt lat="44.52838" lon="6.32093">
        <ele>863</ele>
        <time>2017-08-31T07:46:07Z</time>
      </trkpt>
      <trkpt lat="44.52832" lon="6.32117">
        <ele>860</ele>
        <time>2017-08-31T07:48:07Z</time>
      </trkpt>
      <trkpt lat="44.52757" lon="6.32235">
        <ele>849</ele>
        <time>2017-08-31T07:50:07Z</time>
      </trkpt>
      <trkpt lat="44.52733" lon="6.32252">
        <ele>846</ele>
        <time>2017-08-31T07:52:07Z</time>
      </trkpt>
      <trkpt lat="44.52617" lon="6.32354">
        <ele>829</ele>
        <time>2017-08-31T07:54:07Z</time>
      </trkpt>
      <trkpt lat="44.52558" lon="6.32363">
        <ele>829</ele>
        <time>2017-08-31T07:56:07Z</time>
      </trkpt>
      <trkpt lat="44.52527" lon="6.32385">
        <ele>825</ele>
        <time>2017-08-31T07:58:07Z</time>
      </trkpt>
      <trkpt lat="44.52504" lon="6.32418">
        <ele>818</ele>
        <time>2017-08-31T08:00:07Z</time>
      </trkpt>
      <trkpt lat="44.52471" lon="6.32436">
        <ele>814</ele>
        <time>2017-08-31T08:02:07Z</time>
      </trkpt>
      <trkpt lat="44.52452" lon="6.32438">
        <ele>813</ele>
        <time>2017-08-31T08:04:07Z</time>
      </trkpt>
      <trkpt lat="44.52427" lon="6.32452">
        <ele>810</ele>
        <time>2017-08-31T08:06:07Z</time>
      </trkpt>
      <trkpt lat="44.52379" lon="6.32478">
        <ele>804</ele>
        <time>2017-08-31T08:08:07Z</time>
      </trkpt>
      <trkpt lat="44.52324" lon="6.32525">
        <ele>795</ele>
        <time>2017-08-31T08:10:07Z</time>
      </trkpt>
      <trkpt lat="44.52304" lon="6.32516">
        <ele>798</ele>
        <time>2017-08-31T08:12:07Z</time>
      </trkpt>
      <trkpt lat="44.5227" lon="6.32535">
        <ele>794</ele>
        <time>2017-08-31T08:14:07Z</time>
      </trkpt>
      <trkpt lat="44.52238" lon="6.32542">
        <ele>792</ele>
        <time>2017-08-31T08:16:07Z</time>
      </trkpt>
      <trkpt lat="44.52209" lon="6.32553">
        <ele>789</ele>
        <time>2017-08-31T08:18:07Z</time>
      </trkpt>
      <trkpt lat="44.5218" lon="6.32543">
        <ele>789</ele>
        <time>2017-08-31T08:20:07Z</time>
      </trkpt>
      <trkpt lat="44.52137" lon="6.32492">
        <ele>794</ele>
        <time>2017-08-31T08:22:07Z</time>
      </trkpt>
      <trkpt lat="44.52148" lon="6.32481">
        <ele>797</ele>
        <time>2017-08-31T08:24:07Z</time>
      </trkpt>
      <trkpt lat="44.5214" lon="6.32461">
        <ele>798</ele>
        <time>2017-08-31T08:26:07Z</time>
      </trkpt>
      <trkpt lat="44.5213" lon="6.32452">
        <ele>797</ele>
        <time>2017-08-31T08:28:07Z</time>
      </trkpt>
      <trkpt lat="44.52123" lon="6.32423">
        <ele>798</ele>
        <time>2017-08-31T08:30:07Z</time>
      </trkpt>
      <trkpt lat="44.52123" lon="6.32405">
        <ele>799</ele>
        <time>2017-08-31T08:32:07Z</time>
      </trkpt>
      <trkpt lat="44.52114" lon="6.32378">
        <ele>797</ele>
        <time>2017-08-31T08:34:07Z</time>
      </trkpt>
      <trkpt lat="44.52099" lon="6.32364">
        <ele>793</ele>
        <time>2017-08-31T08:36:07Z</time>
      </trkpt>
      <trkpt lat="44.52098" lon="6.32347">
        <ele>792</ele>
        <time>2017-08-31T08:38:07Z</time>
      </trkpt>
      <trkpt lat="44.52113" lon="6.32344">
        <ele>796</ele>
        <time>2017-08-31T08:40:07Z</time>
      </trkpt>
      <trkpt lat="44.52124" lon="6.32341">
        <ele>800</ele>
        <time>2017-08-31T08:42:07Z</time>
      </trkpt>
      <trkpt lat="44.52137" lon="6.32344">
        <ele>804</ele>
        <time>2017-08-31T08:44:07Z</time>
      </trkpt>
      <trkpt lat="44.52142" lon="6.32336">
        <ele>805</ele>
        <time>2017-08-31T08:46:07Z</time>
      </trkpt>
      <trkpt lat="44.52142" lon="6.32327">
        <ele>806</ele>
        <time>2017-08-31T08:48:07Z</time>
      </trkpt>
      <trkpt lat="44.52162" lon="6.32325">
        <ele>812</ele>
        <time>2017-08-31T08:50:07Z</time>
      </trkpt>
      <trkpt lat="44.52168" lon="6.32331">
        <ele>813</ele>
        <time>2017-08-31T08:52:07Z</time>
      </trkpt>
      <trkpt lat="44.52179" lon="6.3232">
        <ele>817</ele>
        <time>2017-08-31T08:54:07Z</time>
      </trkpt>
      <trkpt lat="44.52173" lon="6.3228">
        <ele>818</ele>
        <time>2017-08-31T08:56:07Z</time>
      </trkpt>
      <trkpt lat="44.52163" lon="6.32266">
        <ele>816</ele>
        <time>2017-08-31T08:58:07Z</time>
      </trkpt>
      <trkpt lat="44.5216" lon="6.32252">
        <ele>816</ele>
        <time>2017-08-31T09:00:07Z</time>
      </trkpt>
      <trkpt lat="44.52142" lon="6.32211">
        <ele>813</ele>
        <time>2017-08-31T09:02:07Z</time>
      </trkpt>
      <trkpt lat="44.52119" lon="6.32215">
        <ele>805</ele>
        <time>2017-08-31T09:04:07Z</time>
      </trkpt>
      <trkpt lat="44.52112" lon="6.32198">
        <ele>804</ele>
        <time>2017-08-31T09:06:07Z</time>
      </trkpt>
      <trkpt lat="44.52112" lon="6.32165">
        <ele>807</ele>
        <time>2017-08-31T09:08:07Z</time>
      </trkpt>
      <trkpt lat="44.52102" lon="6.32151">
        <ele>803</ele>
        <time>2017-08-31T09:10:07Z</time>
      </trkpt>
      <trkpt lat="44.52103" lon="6.32101">
        <ele>804</ele>
        <time>2017-08-31T09:12:07Z</time>
      </trkpt>
      <trkpt lat="44.52156" lon="6.32007">
        <ele>818</ele>
        <time>2017-08-31T09:14:07Z</time>
      </trkpt>
      <trkpt lat="44.5211" lon="6.31986">
        <ele>809</ele>
        <time>2017-08-31T09:16:07Z</time>
      </trkpt>
      <trkpt lat="44.52065" lon="6.31956">
        <ele>799</ele>
        <time>2017-08-31T09:18:07Z</time>
      </trkpt>
      <trkpt lat="44.52084" lon="6.31934">
        <ele>800</ele>
        <time>2017-08-31T09:20:07Z</time>
      </trkpt>
      <trkpt lat="44.52083" lon="6.31927">
        <ele>800</ele>
        <time>2017-08-31T09:22:07Z</time>
      </trkpt>
      <trkpt lat="44.52091" lon="6.31921">
        <ele>801</ele>
        <time>2017-08-31T09:24:07Z</time>
      </trkpt>
      <trkpt lat="44.52067" lon="6.31909">
        <ele>797</ele>
        <time>2017-08-31T09:26:07Z</time>
      </trkpt>
      <trkpt lat="44.52074" lon="6.31885">
        <ele>797</ele>
        <time>2017-08-31T09:28:07Z</time>
      </trkpt>
      <trkpt lat="44.52112" lon="6.31835">
        <ele>797</ele>
        <time>2017-08-31T09:30:07Z</time>
      </trkpt>
      <trkpt lat="44.52113" lon="6.31811">
        <ele>800</ele>
        <time>2017-08-31T09:32:07Z</time>
      </trkpt>
      <trkpt lat="44.52128" lon="6.31795">
        <ele>802</ele>
        <time>2017-08-31T09:34:07Z</time>
      </trkpt>
      <trkpt lat="44.52119" lon="6.31766">
        <ele>805</ele>
        <time>2017-08-31T09:36:07Z</time>
      </trkpt>
      <trkpt lat="44.52099" lon="6.31745">
        <ele>809</ele>
        <time>2017-08-31T09:38:07Z</time>
      </trkpt>
      <trkpt lat="44.52079" lon="6.3175">
        <ele>809</ele>
        <time>2017-08-31T09:40:07Z</time>
      </trkpt>
      <trkpt lat="44.52047" lon="6.31766">
        <ele>812</ele>
        <time>2017-08-31T09:42:07Z</time>
      </trkpt>
      <trkpt lat="44.52046" lon="6.31758">
        <ele>813</ele>
        <time>2017-08-31T09:44:07Z</time>
      </trkpt>
      <trkpt lat="44.5206" lon="6.31708">
        <ele>822</ele>
        <time>2017-08-31T09:46:07Z</time>
      </trkpt>
      <trkpt lat="44.52052" lon="6.31704">
        <ele>824</ele>
        <time>2017-08-31T09:48:07Z</time>
      </trkpt>
      <trkpt lat="44.52031" lon="6.31693">
        <ele>830</ele>
        <time>2017-08-31T09:50:07Z</time>
      </trkpt>
      <trkpt lat="44.52023" lon="6.31685">
        <ele>833</ele>
        <time>2017-08-31T09:52:07Z</time>
      </trkpt>
      <trkpt lat="44.52018" lon="6.31688">
        <ele>833</ele>
        <time>2017-08-31T09:54:07Z</time>
      </trkpt>
      <trkpt lat="44.52017" lon="6.31709">
        <ele>829</ele>
        <time>2017-08-31T09:56:07Z</time>
      </trkpt>
      <trkpt lat="44.52011" lon="6.31714">
        <ele>829</ele>
        <time>2017-08-31T09:58:07Z</time>
      </trkpt>
      <trkpt lat="44.51996" lon="6.31713">
        <ele>831</ele>
        <time>2017-08-31T10:00:07Z</time>
      </trkpt>
      <trkpt lat="44.51989" lon="6.31722">
        <ele>831</ele>
        <time>2017-08-31T10:02:07Z</time>
      </trkpt>
      <trkpt lat="44.51989" lon="6.31734">
        <ele>828</ele>
        <time>2017-08-31T10:04:07Z</time>
      </trkpt>
      <trkpt lat="44.51982" lon="6.31743">
        <ele>827</ele>
        <time>2017-08-31T10:06:07Z</time>
      </trkpt>
      <trkpt lat="44.51948" lon="6.31766">
        <ele>827</ele>
        <time>2017-08-31T10:08:07Z</time>
      </trkpt>
      <trkpt lat="44.51932" lon="6.31765">
        <ele>830</ele>
        <time>2017-08-31T10:10:07Z</time>
      </trkpt>
      <trkpt lat="44.51912" lon="6.31766">
        <ele>832</ele>
        <time>2017-08-31T10:12:07Z</time>
      </trkpt>
      <trkpt lat="44.51904" lon="6.31773">
        <ele>831</ele>
        <time>2017-08-31T10:14:07Z</time>
      </trkpt>
      <trkpt lat="44.51891" lon="6.31771">
        <ele>832</ele>
        <time>2017-08-31T10:16:07Z</time>
      </trkpt>
      <trkpt lat="44.51856" lon="6.3178">
        <ele>832</ele>
        <time>2017-08-31T10:18:07Z</time>
      </trkpt>
      <trkpt lat="44.51847" lon="6.31773">
        <ele>834</ele>
        <time>2017-08-31T10:20:07Z</time>
      </trkpt>
      <trkpt lat="44.51829" lon="6.31771">
        <ele>835</ele>
        <time>2017-08-31T10:22:07Z</time>
      </trkpt>
      <trkpt lat="44.51821" lon="6.31764">
        <ele>836</ele>
        <time>2017-08-31T10:24:07Z</time>
      </trkpt>
      <trkpt lat="44.51807" lon="6.31799">
        <ele>830</ele>
        <time>2017-08-31T10:26:07Z</time>
      </trkpt>
      <trkpt lat="44.51788" lon="6.31797">
        <ele>830</ele>
        <time>2017-08-31T10:28:07Z</time>
      </trkpt>
      <trkpt lat="44.51767" lon="6.3181">
        <ele>828</ele>
        <time>2017-08-31T10:30:07Z</time>
      </trkpt>
      <trkpt lat="44.51749" lon="6.31814">
        <ele>828</ele>
        <time>2017-08-31T10:32:07Z</time>
      </trkpt>
      <trkpt lat="44.51719" lon="6.31808">
        <ele>827</ele>
        <time>2017-08-31T10:34:07Z</time>
      </trkpt>
      <trkpt lat="44.51698" lon="6.31811">
        <ele>825</ele>
        <time>2017-08-31T10:36:07Z</time>
      </trkpt>
      <trkpt lat="44.51679" lon="6.31802">
        <ele>826</ele>
        <time>2017-08-31T10:38:07Z</time>
      </trkpt>
      <trkpt lat="44.51673" lon="6.3179">
        <ele>827</ele>
        <time>2017-08-31T10:40:07Z</time>
      </trkpt>
      <trkpt lat="44.51675" lon="6.31773">
        <ele>829</ele>
        <time>2017-08-31T10:42:07Z</time>
      </trkpt>
      <trkpt lat="44.51667" lon="6.31755">
        <ele>831</ele>
        <time>2017-08-31T10:44:07Z</time>
      </trkpt>
      <trkpt lat="44.51671" lon="6.3173">
        <ele>835</ele>
        <time>2017-08-31T10:46:07Z</time>
      </trkpt>
      <trkpt lat="44.51681" lon="6.3172">
        <ele>837</ele>
        <time>2017-08-31T10:48:07Z</time>
      </trkpt>
      <trkpt lat="44.5169" lon="6.31716">
        <ele>839</ele>
        <time>2017-08-31T10:50:07Z</time>
      </trkpt>
      <trkpt lat="44.51714" lon="6.31654">
        <ele>849</ele>
        <time>2017-08-31T10:52:07Z</time>
      </trkpt>
      <trkpt lat="44.51716" lon="6.31635">
        <ele>850</ele>
        <time>2017-08-31T10:54:07Z</time>
      </trkpt>
      <trkpt lat="44.51726" lon="6.31617">
        <ele>852</ele>
        <time>2017-08-31T10:56:07Z</time>
      </trkpt>
      <trkpt lat="44.5172" lon="6.31536">
        <ele>852</ele>
        <time>2017-08-31T10:58:07Z</time>
      </trkpt>
      <trkpt lat="44.51723" lon="6.31491">
        <ele>854</ele>
        <time>2017-08-31T11:00:07Z</time>
      </trkpt>
      <trkpt lat="44.51732" lon="6.3148">
        <ele>856</ele>
        <time>2017-08-31T11:02:07Z</time>
      </trkpt>
      <trkpt lat="44.51734" lon="6.31457">
        <ele>859</ele>
        <time>2017-08-31T11:04:07Z</time>
      </trkpt>
      <trkpt lat="44.51722" lon="6.3145">
        <ele>859</ele>
        <time>2017-08-31T11:06:07Z</time>
      </trkpt>
      <trkpt lat="44.51706" lon="6.31433">
        <ele>859</ele>
        <time>2017-08-31T11:08:07Z</time>
      </trkpt>
      <trkpt lat="44.51664" lon="6.31431">
        <ele>857</ele>
        <time>2017-08-31T11:10:07Z</time>
      </trkpt>
      <trkpt lat="44.51609" lon="6.31334">
        <ele>869</ele>
        <time>2017-08-31T11:12:07Z</time>
      </trkpt>
      <trkpt lat="44.51608" lon="6.31321">
        <ele>870</ele>
        <time>2017-08-31T11:14:07Z</time>
      </trkpt>
      <trkpt lat="44.51589" lon="6.31274">
        <ele>873</ele>
        <time>2017-08-31T11:16:07Z</time>
      </trkpt>
      <trkpt lat="44.51552" lon="6.31243">
        <ele>873</ele>
        <time>2017-08-31T11:18:07Z</time>
      </trkpt>
      <trkpt lat="44.51528" lon="6.31199">
        <ele>871</ele>
        <time>2017-08-31T11:20:07Z</time>
      </trkpt>
      <trkpt lat="44.51502" lon="6.31155">
        <ele>868</ele>
        <time>2017-08-31T11:22:07Z</time>
      </trkpt>
      <trkpt lat="44.51506" lon="6.31113">
        <ele>866</ele>
        <time>2017-08-31T11:24:07Z</time>
      </trkpt>
      <trkpt lat="44.51479" lon="6.31065">
        <ele>859</ele>
        <time>2017-08-31T11:26:07Z</time>
      </trkpt>
      <trkpt lat="44.51477" lon="6.31047">
        <ele>857</ele>
        <time>2017-08-31T11:28:07Z</time>
      </trkpt>
      <trkpt lat="44.51496" lon="6.30942">
        <ele>842</ele>
        <time>2017-08-31T11:30:07Z</time>
      </trkpt>
      <trkpt lat="44.51505" lon="6.30948">
        <ele>844</ele>
        <time>2017-08-31T11:32:07Z</time>
      </trkpt>
      <trkpt lat="44.51538" lon="6.30945">
        <ele>849</ele>
        <time>2017-08-31T11:34:07Z</time>
      </trkpt>
      <trkpt lat="44.51539" lon="6.30922">
        <ele>845</ele>
        <time>2017-08-31T11:36:07Z</time>
      </trkpt>
      <trkpt lat="44.51552" lon="6.30905">
        <ele>844</ele>
        <time>2017-08-31T11:38:07Z</time>
      </trkpt>
      <trkpt lat="44.51544" lon="6.30882">
        <ele>838</ele>
        <time>2017-08-31T11:40:07Z</time>
      </trkpt>
      <trkpt lat="44.51562" lon="6.30856">
        <ele>837</ele>
        <time>2017-08-31T11:42:07Z</time>
      </trkpt>
      <trkpt lat="44.51576" lon="6.30846">
        <ele>838</ele>
        <time>2017-08-31T11:44:07Z</time>
      </trkpt>
      <trkpt lat="44.51573" lon="6.30826">
        <ele>833</ele>
        <time>2017-08-31T11:46:07Z</time>
      </trkpt>
      <trkpt lat="44.51574" lon="6.30798">
        <ele>828</ele>
        <time>2017-08-31T11:48:07Z</time>
      </trkpt>
      <trkpt lat="44.51592" lon="6.30769">
        <ele>825</ele>
        <time>2017-08-31T11:50:07Z</time>
      </trkpt>
      <trkpt lat="44.51599" lon="6.30726">
        <ele>822</ele>
        <time>2017-08-31T11:52:07Z</time>
      </trkpt>
      <trkpt lat="44.51632" lon="6.30727">
        <ele>829</ele>
        <time>2017-08-31T11:54:07Z</time>
      </trkpt>
      <trkpt lat="44.51618" lon="6.30693">
        <ele>825</ele>
        <time>2017-08-31T11:56:07Z</time>
      </trkpt>
      <trkpt lat="44.51639" lon="6.30692">
        <ele>828</ele>
        <time>2017-08-31T11:58:07Z</time>
      </trkpt>
      <trkpt lat="44.51658" lon="6.30681">
        <ele>831</ele>
        <time>2017-08-31T12:00:07Z</time>
      </trkpt>
      <trkpt lat="44.51636" lon="6.30667">
        <ele>827</ele>
        <time>2017-08-31T12:02:07Z</time>
      </trkpt>
      <trkpt lat="44.51621" lon="6.30644">
        <ele>827</ele>
        <time>2017-08-31T12:04:07Z</time>
      </trkpt>
      <trkpt lat="44.51596" lon="6.30614">
        <ele>827</ele>
        <time>2017-08-31T12:06:07Z</time>
      </trkpt>
      <trkpt lat="44.51566" lon="6.30596">
        <ele>825</ele>
        <time>2017-08-31T12:08:07Z</time>
      </trkpt>
      <trkpt lat="44.51588" lon="6.30597">
        <ele>828</ele>
        <time>2017-08-31T12:10:07Z</time>
      </trkpt>
      <trkpt lat="44.51611" lon="6.30591">
        <ele>831</ele>
        <time>2017-08-31T12:12:07Z</time>
      </trkpt>
      <trkpt lat="44.51666" lon="6.3061">
        <ele>835</ele>
        <time>2017-08-31T12:14:07Z</time>
      </trkpt>
      <trkpt lat="44.51676" lon="6.30636">
        <ele>836</ele>
        <time>2017-08-31T12:16:07Z</time>
      </trkpt>
      <trkpt lat="44.51698" lon="6.30617">
        <ele>843</ele>
        <time>2017-08-31T12:18:07Z</time>
      </trkpt>
      <trkpt lat="44.5171" lon="6.30614">
        <ele>846</ele>
        <time>2017-08-31T12:20:07Z</time>
      </trkpt>
      <trkpt lat="44.51727" lon="6.30611">
        <ele>850</ele>
        <time>2017-08-31T12:22:07Z</time>
      </trkpt>
      <trkpt lat="44.51797" lon="6.30622">
        <ele>863</ele>
        <time>2017-08-31T12:24:07Z</time>
      </trkpt>
      <trkpt lat="44.51827" lon="6.30612">
        <ele>867</ele>
        <time>2017-08-31T12:26:07Z</time>
      </trkpt>
      <trkpt lat="44.51888" lon="6.30638">
        <ele>878</ele>
        <time>2017-08-31T12:28:07Z</time>
      </trkpt>
      <trkpt lat="44.51943" lon="6.30697">
        <ele>889</ele>
        <time>2017-08-31T12:30:07Z</time>
      </trkpt>
      <trkpt lat="44.51968" lon="6.30766">
        <ele>895</ele>
        <time>2017-08-31T12:32:07Z</time>
      </trkpt>
      <trkpt lat="44.52027" lon="6.30704">
        <ele>903</ele>
        <time>2017-08-31T12:34:07Z</time>
      </trkpt>
      <trkpt lat="44.52046" lon="6.30695">
        <ele>904</ele>
        <time>2017-08-31T12:36:07Z</time>
      </trkpt>
      <trkpt lat="44.5209" lon="6.30769">
        <ele>911</ele>
        <time>2017-08-31T12:38:07Z</time>
      </trkpt>
      <trkpt lat="44.52132" lon="6.3076">
        <ele>914</ele>
        <time>2017-08-31T12:40:07Z</time>
      </trkpt>
      <trkpt lat="44.5212" lon="6.30786">
        <ele>916</ele>
        <time>2017-08-31T12:42:07Z</time>
      </trkpt>
      <trkpt lat="44.52121" lon="6.30814">
        <ele>920</ele>
        <time>2017-08-31T12:44:07Z</time>
      </trkpt>
      <trkpt lat="44.52101" lon="6.30863">
        <ele>922</ele>
        <time>2017-08-31T12:46:07Z</time>
      </trkpt>
      <trkpt lat="44.52136" lon="6.30916">
        <ele>934</ele>
        <time>2017-08-31T12:48:07Z</time>
      </trkpt>
      <trkpt lat="44.52134" lon="6.30952">
        <ele>936</ele>
        <time>2017-08-31T12:50:07Z</time>
      </trkpt>
      <trkpt lat="44.5215" lon="6.30978">
        <ele>940</ele>
        <time>2017-08-31T12:52:07Z</time>
      </trkpt>
      <trkpt lat="44.52158" lon="6.30961">
        <ele>940</ele>
        <time>2017-08-31T12:54:07Z</time>
      </trkpt>
      <trkpt lat="44.52154" lon="6.30925">
        <ele>938</ele>
        <time>2017-08-31T12:56:07Z</time>
      </trkpt>
      <trkpt lat="44.52182" lon="6.30876">
        <ele>936</ele>
        <time>2017-08-31T12:58:07Z</time>
      </trkpt>
      <trkpt lat="44.52235" lon="6.30831">
        <ele>934</ele>
        <time>2017-08-31T13:00:07Z</time>
      </trkpt>
      <trkpt lat="44.5225" lon="6.30829">
        <ele>934</ele>
        <time>2017-08-31T13:02:07Z</time>
      </trkpt>
      <trkpt lat="44.52308" lon="6.30852">
        <ele>936</ele>
        <time>2017-08-31T13:04:07Z</time>
      </trkpt>
      <trkpt lat="44.52329" lon="6.30847">
        <ele>935</ele>
        <time>2017-08-31T13:06:07Z</time>
      </trkpt>
      <trkpt lat="44.52381" lon="6.30861">
        <ele>932</ele>
        <time>2017-08-31T13:08:07Z</time>
      </trkpt>
      <trkpt lat="44.52458" lon="6.30839">
        <ele>929</ele>
        <time>2017-08-31T13:10:07Z</time>
      </trkpt>
      <trkpt lat="44.52538" lon="6.30774">
        <ele>928</ele>
        <time>2017-08-31T13:12:07Z</time>
      </trkpt>
      <trkpt lat="44.52563" lon="6.30759">
        <ele>928</ele>
        <time>2017-08-31T13:14:07Z</time>
      </trkpt>
      <trkpt lat="44.52571" lon="6.30736">
        <ele>927</ele>
        <time>2017-08-31T13:16:07Z</time>
      </trkpt>
      <trkpt lat="44.52572" lon="6.30708">
        <ele>927</ele>
        <time>2017-08-31T13:18:07Z</time>
      </trkpt>
      <trkpt lat="44.52614" lon="6.30664">
        <ele>923</ele>
        <time>2017-08-31T13:20:07Z</time>
      </trkpt>
      <trkpt lat="44.52646" lon="6.30624">
        <ele>920</ele>
        <time>2017-08-31T13:22:07Z</time>
      </trkpt>
      <trkpt lat="44.52676" lon="6.30598">
        <ele>920</ele>
        <time>2017-08-31T13:24:07Z</time>
      </trkpt>
      <trkpt lat="44.52707" lon="6.30521">
        <ele>916</ele>
        <time>2017-08-31T13:26:07Z</time>
      </trkpt>
      <trkpt lat="44.52786" lon="6.30469">
        <ele>915</ele>
        <time>2017-08-31T13:28:07Z</time>
      </trkpt>
      <trkpt lat="44.5283" lon="6.30459">
        <ele>912</ele>
        <time>2017-08-31T13:30:07Z</time>
      </trkpt>
      <trkpt lat="44.52859" lon="6.30474">
        <ele>910</ele>
        <time>2017-08-31T13:32:07Z</time>
      </trkpt>
      <trkpt lat="44.52873" lon="6.30465">
        <ele>908</ele>
        <time>2017-08-31T13:34:07Z</time>
      </trkpt>
      <trkpt lat="44.52874" lon="6.30485">
        <ele>909</ele>
        <time>2017-08-31T13:36:07Z</time>
      </trkpt>
      <trkpt lat="44.52859" lon="6.3059">
        <ele>907</ele>
        <time>2017-08-31T13:38:07Z</time>
      </trkpt>
      <trkpt lat="44.52854" lon="6.30623">
        <ele>904</ele>
        <time>2017-08-31T13:40:07Z</time>
      </trkpt>
      <trkpt lat="44.52882" lon="6.3066">
        <ele>899</ele>
        <time>2017-08-31T13:42:07Z</time>
      </trkpt>
      <trkpt lat="44.52866" lon="6.3069">
        <ele>895</ele>
        <time>2017-08-31T13:44:07Z</time>
      </trkpt>
      <trkpt lat="44.52866" lon="6.30707">
        <ele>892</ele>
        <time>2017-08-31T13:46:07Z</time>
      </trkpt>
      <trkpt lat="44.52896" lon="6.30746">
        <ele>883</ele>
        <time>2017-08-31T13:48:07Z</time>
      </trkpt>
      <trkpt lat="44.52893" lon="6.30766">
        <ele>880</ele>
        <time>2017-08-31T13:50:07Z</time>
      </trkpt>
      <trkpt lat="44.52895" lon="6.30792">
        <ele>875</ele>
        <time>2017-08-31T13:52:07Z</time>
      </trkpt>
      <trkpt lat="44.52882" lon="6.30819">
        <ele>872</ele>
        <time>2017-08-31T13:54:07Z</time>
      </trkpt>
      <trkpt lat="44.52887" lon="6.30834">
        <ele>868</ele>
        <time>2017-08-31T13:56:07Z</time>
      </trkpt>
      <trkpt lat="44.52902" lon="6.30837">
        <ele>866</ele>
        <time>2017-08-31T13:58:07Z</time>
      </trkpt>
      <trkpt lat="44.52944" lon="6.30832">
        <ele>864</ele>
        <time>2017-08-31T14:00:07Z</time>
      </trkpt>
      <trkpt lat="44.52966" lon="6.30919">
        <ele>857</ele>
        <time>2017-08-31T14:02:07Z</time>
      </trkpt>
      <trkpt lat="44.5297" lon="6.31002">
        <ele>855</ele>
        <time>2017-08-31T14:04:07Z</time>
      </trkpt>
      <trkpt lat="44.5296" lon="6.3103">
        <ele>855</ele>
        <time>2017-08-31T14:06:07Z</time>
      </trkpt>
      <trkpt lat="44.52972" lon="6.31114">
        <ele>854</ele>
        <time>2017-08-31T14:08:07Z</time>
      </trkpt>
      <trkpt lat="44.52954" lon="6.3122">
        <ele>851</ele>
        <time>2017-08-31T14:10:07Z</time>
      </trkpt>
      <trkpt lat="44.52945" lon="6.31237">
        <ele>850</ele>
        <time>2017-08-31T14:12:07Z</time>
      </trkpt>
      <trkpt lat="44.52908" lon="6.31367">
        <ele>850</ele>
        <time>2017-08-31T14:14:07Z</time>
      </trkpt>
      <trkpt lat="44.52875" lon="6.31457">
        <ele>851</ele>
        <time>2017-08-31T14:16:07Z</time>
      </trkpt>
      <trkpt lat="44.52848" lon="6.31545">
        <ele>851</ele>
        <time>2017-08-31T14:18:07Z</time>
      </trkpt>
      <trkpt lat="44.52845" lon="6.31612">
        <ele>850</ele>
        <time>2017-08-31T14:20:07Z</time>
      </trkpt>
      <trkpt lat="44.5285" lon="6.3171">
        <ele>849</ele>
        <time>2017-08-31T14:22:07Z</time>
      </trkpt>
      <trkpt lat="44.52858" lon="6.31775">
        <ele>850</ele>
        <time>2017-08-31T14:24:07Z</time>
      </trkpt>
      <trkpt lat="44.52854" lon="6.31806">
        <ele>851</ele>
        <time>2017-08-31T14:26:07Z</time>
      </trkpt>
      <trkpt lat="44.52862" lon="6.31822">
        <ele>852</ele>
        <time>2017-08-31T14:28:07Z</time>
      </trkpt>
      <trkpt lat="44.52867" lon="6.31861">
        <ele>855</ele>
        <time>2017-08-31T14:30:07Z</time>
      </trkpt>
      <trkpt lat="44.52882" lon="6.31871">
        <ele>856</ele>
        <time>2017-08-31T14:32:07Z</time>
      </trkpt>
      <trkpt lat="44.52898" lon="6.31869">
        <ele>856</ele>
        <time>2017-08-31T14:34:07Z</time>
      </trkpt>
      <trkpt lat="44.52903" lon="6.31873">
        <ele>856</ele>
        <time>2017-08-31T14:36:07Z</time>
      </trkpt>
      <trkpt lat="44.52875" lon="6.31951">
        <ele>861</ele>
        <time>2017-08-31T14:38:07Z</time>
      </trkpt>
      <trkpt lat="44.52841" lon="6.32083">
        <ele>864</ele>
        <time>2017-08-31T14:40:07Z</time>
      </trkpt>
    </trkseg>
  </trk>
</gpx>